sensor_id;sensor_type;location;lat;lon;timestamp;P1;durP1;ratioP1;P2;durP2;ratioP2
19946;SDS011;10135;50.702;7.276;2023-07-24T05:01:06;2.75;;;2.55;;
19946;SDS011;10135;50.702;7.276;2023-07-24T05:03:06;2.70;;;2.50;;
19946;SDS011;10135;50.702;7.276;2023-07-24T05:05:10;2.65;;;2.50;;
19946;SDS011;10135;50.702;7.276;2023-07-24T05:07:11;2.40;;;2.30;;
19946;SDS011;10135;50.702;7.276;2023-07-24T05:09:12;2.70;;;2.58;;
19946;SDS011;10135;50.702;7.276;2023-07-24T05:11:13;3.88;;;2.58;;
19946;SDS011;10135;50.702;7.276;2023-07-24T05:13:13;3.00;;;2.70;;
19946;SDS011;10135;50.702;7.276;2023-07-24T05:15:14;2.53;;;2.40;;
19946;SDS011;10135;50.702;7.276;2023-07-24T05:17:17;2.85;;;2.65;;
19946;SDS011;10135;50.702;7.276;2023-07-24T05:19:17;3.13;;;2.83;;
19946;SDS011;10135;50.702;7.276;2023-07-24T05:21:18;4.63;;;2.60;;
19946;SDS011;10135;50.702;7.276;2023-07-24T05:23:19;2.70;;;2.60;;
19946;SDS011;10135;50.702;7.276;2023-07-24T05:25:19;2.75;;;2.63;;
19946;SDS011;10135;50.702;7.276;2023-07-24T05:27:20;5.40;;;3.10;;
19946;SDS011;10135;50.702;7.276;2023-07-24T05:29:21;3.13;;;2.80;;
19946;SDS011;10135;50.702;7.276;2023-07-24T05:31:21;3.97;;;2.72;;
19946;SDS011;10135;50.702;7.276;2023-07-24T05:33:22;3.55;;;2.80;;
19946;SDS011;10135;50.702;7.276;2023-07-24T05:35:23;3.85;;;3.00;;
19946;SDS011;10135;50.702;7.276;2023-07-24T05:37:23;3.25;;;3.03;;
19946;SDS011;10135;50.702;7.276;2023-07-24T05:39:24;3.30;;;3.05;;
19946;SDS011;10135;50.702;7.276;2023-07-24T05:41:25;3.10;;;2.80;;
19946;SDS011;10135;50.702;7.276;2023-07-24T05:43:26;3.03;;;2.83;;
19946;SDS011;10135;50.702;7.276;2023-07-24T05:45:27;2.80;;;2.60;;
19946;SDS011;10135;50.702;7.276;2023-07-24T05:47:28;3.67;;;2.97;;
19946;SDS011;10135;50.702;7.276;2023-07-24T05:49:28;2.63;;;2.42;;
19946;SDS011;10135;50.702;7.276;2023-07-24T05:51:29;2.85;;;2.65;;
19946;SDS011;10135;50.702;7.276;2023-07-24T05:53:30;3.17;;;2.88;;
19946;SDS011;10135;50.702;7.276;2023-07-24T05:55:30;3.45;;;3.00;;
19946;SDS011;10135;50.702;7.276;2023-07-24T05:57:31;3.97;;;3.00;;
19946;SDS011;10135;50.702;7.276;2023-07-24T05:59:31;4.20;;;2.97;;
19946;SDS011;10135;50.702;7.276;2023-07-24T06:01:32;3.72;;;3.05;;
19946;SDS011;10135;50.702;7.276;2023-07-24T06:03:33;3.20;;;3.00;;
19946;SDS011;10135;50.702;7.276;2023-07-24T06:05:33;3.22;;;2.88;;
19946;SDS011;10135;50.702;7.276;2023-07-24T06:07:34;4.60;;;3.40;;
19946;SDS011;10135;50.702;7.276;2023-07-24T06:09:35;2.97;;;2.78;;
19946;SDS011;10135;50.702;7.276;2023-07-24T06:11:35;3.40;;;3.10;;
19946;SDS011;10135;50.702;7.276;2023-07-24T06:13:36;3.35;;;3.03;;
19946;SDS011;10135;50.702;7.276;2023-07-24T06:15:36;3.30;;;3.00;;
19946;SDS011;10135;50.702;7.276;2023-07-24T06:17:37;3.60;;;3.25;;
19946;SDS011;10135;50.702;7.276;2023-07-24T06:19:38;3.63;;;3.28;;
19946;SDS011;10135;50.702;7.276;2023-07-24T06:21:39;3.88;;;3.38;;
19946;SDS011;10135;50.702;7.276;2023-07-24T06:23:41;4.50;;;3.33;;
19946;SDS011;10135;50.702;7.276;2023-07-24T06:25:42;4.53;;;3.08;;
19946;SDS011;10135;50.702;7.276;2023-07-24T06:27:42;3.65;;;3.35;;
19946;SDS011;10135;50.702;7.276;2023-07-24T06:29:43;3.35;;;3.03;;
19946;SDS011;10135;50.702;7.276;2023-07-24T06:31:43;5.75;;;3.30;;
19946;SDS011;10135;50.702;7.276;2023-07-24T06:33:44;3.90;;;3.50;;
19946;SDS011;10135;50.702;7.276;2023-07-24T06:35:45;3.83;;;3.25;;
19946;SDS011;10135;50.702;7.276;2023-07-24T06:37:45;4.32;;;3.63;;
19946;SDS011;10135;50.702;7.276;2023-07-24T06:39:46;3.83;;;3.53;;
19946;SDS011;10135;50.702;7.276;2023-07-24T06:41:47;4.95;;;3.33;;
19946;SDS011;10135;50.702;7.276;2023-07-24T06:43:47;9.02;;;3.47;;
19946;SDS011;10135;50.702;7.276;2023-07-24T06:45:48;4.00;;;3.60;;
19946;SDS011;10135;50.702;7.276;2023-07-24T06:47:49;5.43;;;3.55;;
19946;SDS011;10135;50.702;7.276;2023-07-24T06:49:49;3.33;;;3.10;;
19946;SDS011;10135;50.702;7.276;2023-07-24T06:51:50;4.70;;;3.50;;
19946;SDS011;10135;50.702;7.276;2023-07-24T06:53:51;3.72;;;3.42;;
19946;SDS011;10135;50.702;7.276;2023-07-24T06:55:51;3.70;;;3.40;;
19946;SDS011;10135;50.702;7.276;2023-07-24T06:57:52;3.50;;;3.20;;
19946;SDS011;10135;50.702;7.276;2023-07-24T06:59:52;4.38;;;3.88;;
19946;SDS011;10135;50.702;7.276;2023-07-24T07:01:53;3.53;;;3.22;;
19946;SDS011;10135;50.702;7.276;2023-07-24T07:03:54;3.65;;;3.35;;
19946;SDS011;10135;50.702;7.276;2023-07-24T07:05:58;3.65;;;3.35;;
19946;SDS011;10135;50.702;7.276;2023-07-24T07:07:59;3.63;;;3.33;;
19946;SDS011;10135;50.702;7.276;2023-07-24T07:10:00;4.50;;;3.40;;
19946;SDS011;10135;50.702;7.276;2023-07-24T07:12:00;3.55;;;3.28;;
19946;SDS011;10135;50.702;7.276;2023-07-24T07:14:01;3.60;;;3.30;;
19946;SDS011;10135;50.702;7.276;2023-07-24T07:16:02;3.83;;;3.53;;
19946;SDS011;10135;50.702;7.276;2023-07-24T07:18:03;4.05;;;3.25;;
19946;SDS011;10135;50.702;7.276;2023-07-24T07:20:03;3.53;;;3.22;;
19946;SDS011;10135;50.702;7.276;2023-07-24T07:22:05;3.25;;;3.05;;
19946;SDS011;10135;50.702;7.276;2023-07-24T07:24:06;3.88;;;3.10;;
19946;SDS011;10135;50.702;7.276;2023-07-24T07:26:07;3.63;;;3.15;;
19946;SDS011;10135;50.702;7.276;2023-07-24T07:28:07;4.10;;;2.88;;
19946;SDS011;10135;50.702;7.276;2023-07-24T07:30:08;3.63;;;3.33;;
19946;SDS011;10135;50.702;7.276;2023-07-24T07:32:10;3.20;;;3.00;;
19946;SDS011;10135;50.702;7.276;2023-07-24T07:34:10;5.75;;;3.20;;
19946;SDS011;10135;50.702;7.276;2023-07-24T07:36:11;3.22;;;2.88;;
19946;SDS011;10135;50.702;7.276;2023-07-24T07:38:12;3.28;;;2.97;;
19946;SDS011;10135;50.702;7.276;2023-07-24T07:40:13;3.50;;;3.20;;
19946;SDS011;10135;50.702;7.276;2023-07-24T07:42:13;3.40;;;3.10;;
19946;SDS011;10135;50.702;7.276;2023-07-24T07:44:14;3.88;;;3.40;;
19946;SDS011;10135;50.702;7.276;2023-07-24T07:46:15;6.20;;;3.35;;
19946;SDS011;10135;50.702;7.276;2023-07-24T07:48:15;2.78;;;2.58;;
19946;SDS011;10135;50.702;7.276;2023-07-24T07:50:16;3.50;;;3.20;;
19946;SDS011;10135;50.702;7.276;2023-07-24T07:52:16;3.00;;;2.72;;
19946;SDS011;10135;50.702;7.276;2023-07-24T07:54:17;3.20;;;2.90;;
19946;SDS011;10135;50.702;7.276;2023-07-24T07:56:18;2.92;;;2.72;;
19946;SDS011;10135;50.702;7.276;2023-07-24T07:58:19;3.40;;;3.10;;
19946;SDS011;10135;50.702;7.276;2023-07-24T08:00:19;3.30;;;3.00;;
19946;SDS011;10135;50.702;7.276;2023-07-24T08:02:20;3.35;;;3.05;;
19946;SDS011;10135;50.702;7.276;2023-07-24T08:04:21;3.20;;;3.00;;
19946;SDS011;10135;50.702;7.276;2023-07-24T08:06:22;3.72;;;3.42;;
19946;SDS011;10135;50.702;7.276;2023-07-24T08:08:22;3.67;;;2.90;;
19946;SDS011;10135;50.702;7.276;2023-07-24T08:10:23;2.92;;;2.72;;
19946;SDS011;10135;50.702;7.276;2023-07-24T08:12:24;3.00;;;2.80;;
19946;SDS011;10135;50.702;7.276;2023-07-24T08:14:25;4.53;;;3.00;;
19946;SDS011;10135;50.702;7.276;2023-07-24T08:16:25;3.15;;;2.90;;
19946;SDS011;10135;50.702;7.276;2023-07-24T08:18:26;3.00;;;2.80;;
19946;SDS011;10135;50.702;7.276;2023-07-24T08:20:27;3.70;;;3.00;;
19946;SDS011;10135;50.702;7.276;2023-07-24T08:22:27;2.65;;;2.45;;
19946;SDS011;10135;50.702;7.276;2023-07-24T08:24:28;3.08;;;2.88;;
19946;SDS011;10135;50.702;7.276;2023-07-24T08:26:28;2.92;;;2.72;;
19946;SDS011;10135;50.702;7.276;2023-07-24T08:28:29;2.85;;;2.65;;
19946;SDS011;10135;50.702;7.276;2023-07-24T08:30:32;2.88;;;2.67;;
19946;SDS011;10135;50.702;7.276;2023-07-24T08:32:34;2.85;;;2.60;;
19946;SDS011;10135;50.702;7.276;2023-07-24T08:34:35;3.80;;;3.13;;
19946;SDS011;10135;50.702;7.276;2023-07-24T08:36:35;2.80;;;2.60;;
19946;SDS011;10135;50.702;7.276;2023-07-24T08:38:37;2.97;;;2.78;;
19946;SDS011;10135;50.702;7.276;2023-07-24T08:40:38;3.05;;;2.85;;
19946;SDS011;10135;50.702;7.276;2023-07-24T08:42:39;3.10;;;2.78;;
19946;SDS011;10135;50.702;7.276;2023-07-24T08:44:43;4.32;;;2.97;;
19946;SDS011;10135;50.702;7.276;2023-07-24T08:46:44;3.00;;;2.80;;
19946;SDS011;10135;50.702;7.276;2023-07-24T08:48:47;2.40;;;2.30;;
19946;SDS011;10135;50.702;7.276;2023-07-24T08:50:48;2.50;;;2.40;;
19946;SDS011;10135;50.702;7.276;2023-07-24T08:52:52;2.97;;;2.78;;
19946;SDS011;10135;50.702;7.276;2023-07-24T08:54:53;2.53;;;2.42;;
19946;SDS011;10135;50.702;7.276;2023-07-24T08:56:57;2.92;;;2.72;;
19946;SDS011;10135;50.702;7.276;2023-07-24T08:58:58;2.80;;;2.60;;
19946;SDS011;10135;50.702;7.276;2023-07-24T09:01:00;2.78;;;2.58;;
19946;SDS011;10135;50.702;7.276;2023-07-24T09:03:03;2.80;;;2.60;;
19946;SDS011;10135;50.702;7.276;2023-07-24T09:05:04;3.22;;;2.80;;
19946;SDS011;10135;50.702;7.276;2023-07-24T09:07:05;2.80;;;2.70;;
19946;SDS011;10135;50.702;7.276;2023-07-24T09:09:16;3.85;;;2.47;;
19946;SDS011;10135;50.702;7.276;2023-07-24T09:11:17;2.72;;;2.53;;
19946;SDS011;10135;50.702;7.276;2023-07-24T09:13:17;2.70;;;2.50;;
19946;SDS011;10135;50.702;7.276;2023-07-24T09:15:18;2.45;;;2.35;;
19946;SDS011;10135;50.702;7.276;2023-07-24T09:17:19;3.70;;;2.40;;
19946;SDS011;10135;50.702;7.276;2023-07-24T09:19:19;2.65;;;2.45;;
19946;SDS011;10135;50.702;7.276;2023-07-24T09:21:27;2.85;;;2.50;;
19946;SDS011;10135;50.702;7.276;2023-07-24T09:23:29;2.47;;;2.30;;
19946;SDS011;10135;50.702;7.276;2023-07-24T09:25:31;2.60;;;2.40;;
19946;SDS011;10135;50.702;7.276;2023-07-24T09:27:36;2.20;;;2.10;;
19946;SDS011;10135;50.702;7.276;2023-07-24T09:29:37;2.60;;;2.50;;
19946;SDS011;10135;50.702;7.276;2023-07-24T09:31:38;2.40;;;2.20;;
19946;SDS011;10135;50.702;7.276;2023-07-24T09:33:40;2.22;;;2.13;;
19946;SDS011;10135;50.702;7.276;2023-07-24T09:35:41;2.35;;;2.25;;
19946;SDS011;10135;50.702;7.276;2023-07-24T09:37:42;2.40;;;2.22;;
19946;SDS011;10135;50.702;7.276;2023-07-24T09:39:42;2.70;;;2.50;;
19946;SDS011;10135;50.702;7.276;2023-07-24T09:41:46;2.33;;;2.15;;
19946;SDS011;10135;50.702;7.276;2023-07-24T09:43:57;2.30;;;2.20;;
19946;SDS011;10135;50.702;7.276;2023-07-24T09:45:58;2.47;;;2.30;;
19946;SDS011;10135;50.702;7.276;2023-07-24T09:47:59;2.22;;;2.13;;
19946;SDS011;10135;50.702;7.276;2023-07-24T09:50:02;2.20;;;2.10;;
19946;SDS011;10135;50.702;7.276;2023-07-24T09:52:04;2.38;;;2.13;;
19946;SDS011;10135;50.702;7.276;2023-07-24T09:54:14;2.53;;;2.22;;
19946;SDS011;10135;50.702;7.276;2023-07-24T09:56:18;2.13;;;2.03;;
19946;SDS011;10135;50.702;7.276;2023-07-24T09:58:20;1.98;;;1.95;;
19946;SDS011;10135;50.702;7.276;2023-07-24T10:00:22;2.10;;;2.00;;
19946;SDS011;10135;50.702;7.276;2023-07-24T10:02:23;2.30;;;2.10;;
19946;SDS011;10135;50.702;7.276;2023-07-24T10:04:24;2.20;;;2.10;;
19946;SDS011;10135;50.702;7.276;2023-07-24T10:06:26;2.20;;;2.10;;
19946;SDS011;10135;50.702;7.276;2023-07-24T10:08:29;2.08;;;1.98;;
19946;SDS011;10135;50.702;7.276;2023-07-24T10:10:31;2.20;;;2.10;;
19946;SDS011;10135;50.702;7.276;2023-07-24T10:12:32;2.20;;;2.10;;
19946;SDS011;10135;50.702;7.276;2023-07-24T10:14:34;2.20;;;2.10;;
19946;SDS011;10135;50.702;7.276;2023-07-24T10:16:36;2.20;;;2.10;;
19946;SDS011;10135;50.702;7.276;2023-07-24T10:18:44;2.13;;;2.03;;
19946;SDS011;10135;50.702;7.276;2023-07-24T10:20:46;2.10;;;2.00;;
19946;SDS011;10135;50.702;7.276;2023-07-24T10:22:46;2.17;;;2.10;;
19946;SDS011;10135;50.702;7.276;2023-07-24T10:24:47;2.00;;;1.95;;
19946;SDS011;10135;50.702;7.276;2023-07-24T10:26:48;2.20;;;2.10;;
19946;SDS011;10135;50.702;7.276;2023-07-24T10:28:49;2.08;;;1.98;;
19946;SDS011;10135;50.702;7.276;2023-07-24T10:30:54;2.20;;;2.10;;
19946;SDS011;10135;50.702;7.276;2023-07-24T10:33:10;2.72;;;2.35;;
19946;SDS011;10135;50.702;7.276;2023-07-24T10:35:13;2.75;;;2.22;;
19946;SDS011;10135;50.702;7.276;2023-07-24T10:37:14;2.10;;;2.00;;
19946;SDS011;10135;50.702;7.276;2023-07-24T10:39:16;2.40;;;2.20;;
19946;SDS011;10135;50.702;7.276;2023-07-24T10:41:20;2.25;;;2.15;;
19946;SDS011;10135;50.702;7.276;2023-07-24T10:43:21;3.35;;;2.30;;
19946;SDS011;10135;50.702;7.276;2023-07-24T10:45:22;2.55;;;2.40;;
19946;SDS011;10135;50.702;7.276;2023-07-24T10:47:23;2.70;;;2.50;;
19946;SDS011;10135;50.702;7.276;2023-07-24T10:49:24;2.50;;;2.30;;
19946;SDS011;10135;50.702;7.276;2023-07-24T10:51:24;2.75;;;2.53;;
19946;SDS011;10135;50.702;7.276;2023-07-24T10:53:25;2.60;;;2.50;;
19946;SDS011;10135;50.702;7.276;2023-07-24T10:55:26;2.55;;;2.30;;
19946;SDS011;10135;50.702;7.276;2023-07-24T10:57:27;2.67;;;2.58;;
19946;SDS011;10135;50.702;7.276;2023-07-24T10:59:38;2.40;;;2.30;;
19946;SDS011;10135;50.702;7.276;2023-07-24T11:01:40;2.55;;;2.40;;
19946;SDS011;10135;50.702;7.276;2023-07-24T11:03:42;2.60;;;2.40;;
19946;SDS011;10135;50.702;7.276;2023-07-24T11:05:43;2.50;;;2.40;;
19946;SDS011;10135;50.702;7.276;2023-07-24T11:07:46;2.30;;;2.20;;
19946;SDS011;10135;50.702;7.276;2023-07-24T11:09:47;2.60;;;2.50;;
19946;SDS011;10135;50.702;7.276;2023-07-24T11:11:48;2.78;;;2.35;;
19946;SDS011;10135;50.702;7.276;2023-07-24T11:13:51;2.38;;;2.28;;
19946;SDS011;10135;50.702;7.276;2023-07-24T11:15:52;2.42;;;2.33;;
19946;SDS011;10135;50.702;7.276;2023-07-24T11:17:54;2.40;;;2.20;;
19946;SDS011;10135;50.702;7.276;2023-07-24T11:20:04;2.45;;;2.33;;
19946;SDS011;10135;50.702;7.276;2023-07-24T11:22:15;3.08;;;2.88;;
19946;SDS011;10135;50.702;7.276;2023-07-24T11:24:22;2.30;;;2.17;;
19946;SDS011;10135;50.702;7.276;2023-07-24T11:26:24;2.53;;;2.38;;
19946;SDS011;10135;50.702;7.276;2023-07-24T11:28:26;2.70;;;2.40;;
19946;SDS011;10135;50.702;7.276;2023-07-24T11:30:26;2.40;;;2.30;;
19946;SDS011;10135;50.702;7.276;2023-07-24T11:32:27;3.63;;;2.45;;
19946;SDS011;10135;50.702;7.276;2023-07-24T11:34:28;2.40;;;2.30;;
19946;SDS011;10135;50.702;7.276;2023-07-24T11:36:28;2.10;;;2.00;;
19946;SDS011;10135;50.702;7.276;2023-07-24T11:38:29;2.42;;;2.33;;
19946;SDS011;10135;50.702;7.276;2023-07-24T11:40:31;2.60;;;2.40;;
19946;SDS011;10135;50.702;7.276;2023-07-24T11:42:38;2.30;;;2.20;;
19946;SDS011;10135;50.702;7.276;2023-07-24T11:44:42;2.85;;;2.63;;
19946;SDS011;10135;50.702;7.276;2023-07-24T11:46:43;2.72;;;2.53;;
19946;SDS011;10135;50.702;7.276;2023-07-24T11:48:43;8.15;;;2.65;;
19946;SDS011;10135;50.702;7.276;2023-07-24T11:50:45;3.65;;;2.50;;
19946;SDS011;10135;50.702;7.276;2023-07-24T11:52:57;2.33;;;2.22;;
19946;SDS011;10135;50.702;7.276;2023-07-24T11:54:57;2.38;;;2.28;;
19946;SDS011;10135;50.702;7.276;2023-07-24T11:57:03;2.78;;;2.58;;
19946;SDS011;10135;50.702;7.276;2023-07-24T11:59:17;3.28;;;2.30;;
19946;SDS011;10135;50.702;7.276;2023-07-24T12:01:17;2.78;;;2.58;;
19946;SDS011;10135;50.702;7.276;2023-07-24T12:03:21;4.85;;;2.50;;
19946;SDS011;10135;50.702;7.276;2023-07-24T12:05:25;10.40;;;2.67;;
19946;SDS011;10135;50.702;7.276;2023-07-24T12:07:33;6.05;;;2.35;;
19946;SDS011;10135;50.702;7.276;2023-07-24T12:09:35;2.25;;;2.15;;
19946;SDS011;10135;50.702;7.276;2023-07-24T12:11:42;2.80;;;2.60;;
19946;SDS011;10135;50.702;7.276;2023-07-24T12:13:44;2.72;;;2.60;;
19946;SDS011;10135;50.702;7.276;2023-07-24T12:15:45;2.67;;;2.47;;
19946;SDS011;10135;50.702;7.276;2023-07-24T12:17:45;2.67;;;2.47;;
19946;SDS011;10135;50.702;7.276;2023-07-24T12:19:46;2.63;;;2.40;;
19946;SDS011;10135;50.702;7.276;2023-07-24T12:21:47;2.40;;;2.20;;
19946;SDS011;10135;50.702;7.276;2023-07-24T12:23:47;4.90;;;2.45;;
19946;SDS011;10135;50.702;7.276;2023-07-24T12:25:48;2.38;;;2.28;;
19946;SDS011;10135;50.702;7.276;2023-07-24T12:27:49;2.50;;;2.33;;
19946;SDS011;10135;50.702;7.276;2023-07-24T12:29:50;2.42;;;2.22;;
19946;SDS011;10135;50.702;7.276;2023-07-24T12:31:52;2.30;;;2.20;;
19946;SDS011;10135;50.702;7.276;2023-07-24T12:33:52;2.42;;;2.25;;
19946;SDS011;10135;50.702;7.276;2023-07-24T12:35:53;2.10;;;2.00;;
19946;SDS011;10135;50.702;7.276;2023-07-24T12:37:54;1.83;;;1.75;;
19946;SDS011;10135;50.702;7.276;2023-07-24T12:39:54;2.25;;;1.98;;
19946;SDS011;10135;50.702;7.276;2023-07-24T12:41:55;2.10;;;2.00;;
19946;SDS011;10135;50.702;7.276;2023-07-24T12:43:56;4.85;;;1.90;;
19946;SDS011;10135;50.702;7.276;2023-07-24T12:45:56;1.85;;;1.75;;
19946;SDS011;10135;50.702;7.276;2023-07-24T12:47:57;1.67;;;1.48;;
19946;SDS011;10135;50.702;7.276;2023-07-24T12:49:57;1.90;;;1.80;;
19946;SDS011;10135;50.702;7.276;2023-07-24T12:52:00;3.03;;;1.90;;
19946;SDS011;10135;50.702;7.276;2023-07-24T12:54:02;2.28;;;2.08;;
19946;SDS011;10135;50.702;7.276;2023-07-24T12:56:03;1.80;;;1.70;;
19946;SDS011;10135;50.702;7.276;2023-07-24T12:58:03;2.25;;;1.88;;
19946;SDS011;10135;50.702;7.276;2023-07-24T13:00:04;1.60;;;1.50;;
19946;SDS011;10135;50.702;7.276;2023-07-24T13:02:06;1.60;;;1.60;;
19946;SDS011;10135;50.702;7.276;2023-07-24T13:04:07;1.45;;;1.35;;
19946;SDS011;10135;50.702;7.276;2023-07-24T13:06:08;1.40;;;1.40;;
19946;SDS011;10135;50.702;7.276;2023-07-24T13:08:08;1.17;;;1.17;;
19946;SDS011;10135;50.702;7.276;2023-07-24T13:10:09;1.23;;;1.23;;
19946;SDS011;10135;50.702;7.276;2023-07-24T13:12:10;1.27;;;1.00;;
19946;SDS011;10135;50.702;7.276;2023-07-24T13:14:10;1.02;;;1.02;;
19946;SDS011;10135;50.702;7.276;2023-07-24T13:16:11;1.02;;;1.02;;
19946;SDS011;10135;50.702;7.276;2023-07-24T13:18:12;2.05;;;1.10;;
19946;SDS011;10135;50.702;7.276;2023-07-24T13:20:14;1.10;;;1.10;;
19946;SDS011;10135;50.702;7.276;2023-07-24T13:22:14;1.38;;;1.27;;
19946;SDS011;10135;50.702;7.276;2023-07-24T13:24:15;1.17;;;1.17;;
19946;SDS011;10135;50.702;7.276;2023-07-24T13:26:15;1.42;;;1.40;;
19946;SDS011;10135;50.702;7.276;2023-07-24T13:28:16;2.85;;;1.45;;
19946;SDS011;10135;50.702;7.276;2023-07-24T13:30:17;1.30;;;1.20;;
19946;SDS011;10135;50.702;7.276;2023-07-24T13:32:18;1.40;;;1.30;;
19946;SDS011;10135;50.702;7.276;2023-07-24T13:34:18;1.65;;;1.08;;
19946;SDS011;10135;50.702;7.276;2023-07-24T13:36:19;1.55;;;1.45;;
19946;SDS011;10135;50.702;7.276;2023-07-24T13:38:20;1.30;;;1.30;;
19946;SDS011;10135;50.702;7.276;2023-07-24T13:40:21;3.83;;;1.67;;
19946;SDS011;10135;50.702;7.276;2023-07-24T13:42:21;1.40;;;1.30;;
19946;SDS011;10135;50.702;7.276;2023-07-24T13:44:22;1.10;;;1.10;;
19946;SDS011;10135;50.702;7.276;2023-07-24T13:46:22;1.00;;;1.00;;
19946;SDS011;10135;50.702;7.276;2023-07-24T13:48:23;2.60;;;1.33;;
19946;SDS011;10135;50.702;7.276;2023-07-24T13:50:24;1.25;;;1.25;;
19946;SDS011;10135;50.702;7.276;2023-07-24T13:52:25;1.17;;;1.17;;
19946;SDS011;10135;50.702;7.276;2023-07-24T13:54:25;1.08;;;1.08;;
19946;SDS011;10135;50.702;7.276;2023-07-24T13:56:26;1.00;;;1.00;;
19946;SDS011;10135;50.702;7.276;2023-07-24T13:58:29;1.10;;;1.00;;
19946;SDS011;10135;50.702;7.276;2023-07-24T14:00:30;1.33;;;1.20;;
19946;SDS011;10135;50.702;7.276;2023-07-24T14:02:30;1.00;;;1.00;;
19946;SDS011;10135;50.702;7.276;2023-07-24T14:04:31;1.08;;;1.08;;
19946;SDS011;10135;50.702;7.276;2023-07-24T14:06:32;1.05;;;1.05;;
19946;SDS011;10135;50.702;7.276;2023-07-24T14:08:32;1.00;;;1.00;;
19946;SDS011;10135;50.702;7.276;2023-07-24T14:10:34;1.08;;;1.08;;
19946;SDS011;10135;50.702;7.276;2023-07-24T14:12:35;0.80;;;0.80;;
19946;SDS011;10135;50.702;7.276;2023-07-24T14:14:36;2.05;;;1.10;;
19946;SDS011;10135;50.702;7.276;2023-07-24T14:16:36;1.00;;;1.00;;
19946;SDS011;10135;50.702;7.276;2023-07-24T14:18:37;0.95;;;0.95;;
19946;SDS011;10135;50.702;7.276;2023-07-24T14:20:38;1.27;;;1.13;;
19946;SDS011;10135;50.702;7.276;2023-07-24T14:22:40;0.90;;;0.90;;
19946;SDS011;10135;50.702;7.276;2023-07-24T14:24:40;1.15;;;0.88;;
19946;SDS011;10135;50.702;7.276;2023-07-24T14:26:41;1.10;;;1.10;;
19946;SDS011;10135;50.702;7.276;2023-07-24T14:28:42;1.13;;;1.10;;
19946;SDS011;10135;50.702;7.276;2023-07-24T14:30:42;1.33;;;1.30;;
19946;SDS011;10135;50.702;7.276;2023-07-24T14:32:43;1.50;;;1.40;;
19946;SDS011;10135;50.702;7.276;2023-07-24T14:34:44;1.33;;;1.15;;
19946;SDS011;10135;50.702;7.276;2023-07-24T14:36:50;1.55;;;1.35;;
19946;SDS011;10135;50.702;7.276;2023-07-24T14:38:52;1.65;;;1.20;;
19946;SDS011;10135;50.702;7.276;2023-07-24T14:40:53;1.42;;;1.23;;
19946;SDS011;10135;50.702;7.276;2023-07-24T14:42:53;1.33;;;1.33;;
19946;SDS011;10135;50.702;7.276;2023-07-24T14:44:54;1.10;;;1.10;;
19946;SDS011;10135;50.702;7.276;2023-07-24T14:46:55;1.42;;;1.25;;
19946;SDS011;10135;50.702;7.276;2023-07-24T14:48:55;1.40;;;1.30;;
19946;SDS011;10135;50.702;7.276;2023-07-24T14:50:56;1.58;;;1.45;;
19946;SDS011;10135;50.702;7.276;2023-07-24T14:52:57;1.67;;;1.10;;
19946;SDS011;10135;50.702;7.276;2023-07-24T14:54:57;1.25;;;1.15;;
19946;SDS011;10135;50.702;7.276;2023-07-24T14:56:58;1.20;;;1.20;;
19946;SDS011;10135;50.702;7.276;2023-07-24T14:58:59;1.15;;;1.02;;
19946;SDS011;10135;50.702;7.276;2023-07-24T15:01:00;1.00;;;1.00;;
19946;SDS011;10135;50.702;7.276;2023-07-24T15:03:01;1.13;;;1.13;;
19946;SDS011;10135;50.702;7.276;2023-07-24T15:05:02;3.22;;;1.13;;
19946;SDS011;10135;50.702;7.276;2023-07-24T15:07:02;0.93;;;0.93;;
19946;SDS011;10135;50.702;7.276;2023-07-24T15:09:03;1.17;;;1.17;;
19946;SDS011;10135;50.702;7.276;2023-07-24T15:11:04;1.02;;;0.90;;
19946;SDS011;10135;50.702;7.276;2023-07-24T15:13:05;1.08;;;1.08;;
19946;SDS011;10135;50.702;7.276;2023-07-24T15:15:05;1.00;;;1.00;;
19946;SDS011;10135;50.702;7.276;2023-07-24T15:17:07;0.90;;;0.90;;
19946;SDS011;10135;50.702;7.276;2023-07-24T15:19:07;1.20;;;1.20;;
19946;SDS011;10135;50.702;7.276;2023-07-24T15:21:08;1.17;;;1.08;;
19946;SDS011;10135;50.702;7.276;2023-07-24T15:23:10;1.10;;;0.98;;
19946;SDS011;10135;50.702;7.276;2023-07-24T15:25:12;1.05;;;1.05;;
19946;SDS011;10135;50.702;7.276;2023-07-24T15:27:13;1.20;;;1.20;;
19946;SDS011;10135;50.702;7.276;2023-07-24T15:29:14;1.27;;;1.15;;
19946;SDS011;10135;50.702;7.276;2023-07-24T15:31:15;0.93;;;0.93;;
19946;SDS011;10135;50.702;7.276;2023-07-24T15:33:16;1.10;;;1.10;;
19946;SDS011;10135;50.702;7.276;2023-07-24T15:35:17;1.05;;;1.05;;
19946;SDS011;10135;50.702;7.276;2023-07-24T15:37:18;1.10;;;1.10;;
19946;SDS011;10135;50.702;7.276;2023-07-24T15:39:18;1.05;;;1.05;;
19946;SDS011;10135;50.702;7.276;2023-07-24T15:41:19;1.15;;;1.13;;
19946;SDS011;10135;50.702;7.276;2023-07-24T15:43:20;1.05;;;0.88;;
19946;SDS011;10135;50.702;7.276;2023-07-24T15:45:24;1.00;;;1.00;;
19946;SDS011;10135;50.702;7.276;2023-07-24T15:47:24;1.10;;;1.10;;
19946;SDS011;10135;50.702;7.276;2023-07-24T15:49:26;0.90;;;0.90;;
19946;SDS011;10135;50.702;7.276;2023-07-24T15:51:26;0.90;;;0.90;;
19946;SDS011;10135;50.702;7.276;2023-07-24T15:53:27;1.10;;;1.00;;
19946;SDS011;10135;50.702;7.276;2023-07-24T15:55:28;1.65;;;0.98;;
19946;SDS011;10135;50.702;7.276;2023-07-24T15:57:29;0.80;;;0.80;;
19946;SDS011;10135;50.702;7.276;2023-07-24T15:59:30;0.80;;;0.80;;
19946;SDS011;10135;50.702;7.276;2023-07-24T16:01:30;0.90;;;0.90;;
19946;SDS011;10135;50.702;7.276;2023-07-24T16:03:31;0.98;;;0.98;;
19946;SDS011;10135;50.702;7.276;2023-07-24T16:05:32;0.88;;;0.88;;
19946;SDS011;10135;50.702;7.276;2023-07-24T16:07:32;0.80;;;0.80;;
19946;SDS011;10135;50.702;7.276;2023-07-24T16:09:33;0.90;;;0.90;;
19946;SDS011;10135;50.702;7.276;2023-07-24T16:11:34;0.88;;;0.88;;
19946;SDS011;10135;50.702;7.276;2023-07-24T16:13:43;0.70;;;0.70;;
19946;SDS011;10135;50.702;7.276;2023-07-24T16:15:44;0.90;;;0.90;;
19946;SDS011;10135;50.702;7.276;2023-07-24T16:17:44;2.25;;;0.90;;
19946;SDS011;10135;50.702;7.276;2023-07-24T16:19:46;0.93;;;0.93;;
19946;SDS011;10135;50.702;7.276;2023-07-24T16:21:47;1.20;;;0.90;;
19946;SDS011;10135;50.702;7.276;2023-07-24T16:23:50;1.00;;;1.00;;
19946;SDS011;10135;50.702;7.276;2023-07-24T16:25:51;0.70;;;0.70;;
19946;SDS011;10135;50.702;7.276;2023-07-24T16:27:51;0.80;;;0.80;;
19946;SDS011;10135;50.702;7.276;2023-07-24T16:29:52;1.13;;;1.13;;
19946;SDS011;10135;50.702;7.276;2023-07-24T16:31:53;1.27;;;1.05;;
19946;SDS011;10135;50.702;7.276;2023-07-24T16:33:53;1.23;;;1.20;;
19946;SDS011;10135;50.702;7.276;2023-07-24T16:35:54;1.20;;;1.20;;
19946;SDS011;10135;50.702;7.276;2023-07-24T16:37:55;1.10;;;1.10;;
19946;SDS011;10135;50.702;7.276;2023-07-24T16:39:55;1.40;;;1.30;;
19946;SDS011;10135;50.702;7.276;2023-07-24T16:41:57;1.20;;;1.20;;
19946;SDS011;10135;50.702;7.276;2023-07-24T16:43:57;1.17;;;1.17;;
19946;SDS011;10135;50.702;7.276;2023-07-24T16:45:58;1.40;;;1.40;;
19946;SDS011;10135;50.702;7.276;2023-07-24T16:47:59;1.48;;;1.40;;
19946;SDS011;10135;50.702;7.276;2023-07-24T16:49:59;1.38;;;1.27;;
19946;SDS011;10135;50.702;7.276;2023-07-24T16:52:00;1.70;;;1.60;;
19946;SDS011;10135;50.702;7.276;2023-07-24T16:54:02;1.35;;;1.35;;
19946;SDS011;10135;50.702;7.276;2023-07-24T16:56:03;1.38;;;1.38;;
19946;SDS011;10135;50.702;7.276;2023-07-24T16:58:04;1.38;;;1.38;;
19946;SDS011;10135;50.702;7.276;2023-07-24T17:00:05;1.50;;;1.40;;
19946;SDS011;10135;50.702;7.276;2023-07-24T17:02:06;1.40;;;1.40;;
19946;SDS011;10135;50.702;7.276;2023-07-24T17:04:07;1.50;;;1.40;;
19946;SDS011;10135;50.702;7.276;2023-07-24T17:06:07;3.35;;;1.50;;
19946;SDS011;10135;50.702;7.276;2023-07-24T17:08:08;1.75;;;1.65;;
19946;SDS011;10135;50.702;7.276;2023-07-24T17:10:09;1.20;;;1.20;;
19946;SDS011;10135;50.702;7.276;2023-07-24T17:12:09;1.33;;;1.33;;